Time;durP1;ratioP1;P1;durP2;ratioP2;P2;SDS_P1;SDS_P2;PMS_P1;PMS_P2;Temp;Humidity;BMP_temperature;BMP_pressure;BME280_temperature;BME280_humidity;BME280_pressure;Samples;Min_cycle;Max_cycle;Signal;HPM_P1;HPM_P2
2021/12/15 00:00:57;;;;;;;;;;;9.70;62.80;;;;;;5075832;28;20307;-58
2021/12/15 00:03:23;;;;;;;;;;;9.60;62.80;;;;;;5075917;28;19909;-58
2021/12/15 00:05:50;;;;;;;;;;;9.60;63.10;;;;;;5075695;28;19958;-59
2021/12/15 00:08:16;;;;;;;;;;;9.70;63.30;;;;;;5075703;28;19916;-58
2021/12/15 00:10:42;;;;;;;;;;;9.70;63.00;;;;;;5075559;28;19913;-59
2021/12/15 00:13:08;;;;;;;;;;;9.80;62.70;;;;;;5075500;28;19951;-58
2021/12/15 00:15:34;;;;;;;;;;;9.90;62.60;;;;;;5075891;28;19955;-58
2021/12/15 00:17:59;;;;;;;;;;;9.90;62.10;;;;;;5075640;28;19940;-59
2021/12/15 00:20:25;;;;;;;;;;;9.90;62.40;;;;;;5075385;28;19912;-58
2021/12/15 00:22:52;;;;;;;;;;;9.90;62.50;;;;;;5075316;28;19962;-59
2021/12/15 00:25:19;;;;;;;;;;;9.80;62.80;;;;;;5075183;28;20324;-59
2021/12/15 00:27:45;;;;;;;;;;;9.80;62.80;;;;;;5075275;28;19915;-58
2021/12/15 00:30:11;;;;;;;;;;;9.90;62.80;;;;;;5075234;28;19917;-60
2021/12/15 00:32:36;;;;;;;;;;;9.80;62.80;;;;;;5074973;28;19908;-58
2021/12/15 00:35:02;;;;;;;;;;;9.80;63.00;;;;;;5066838;28;19919;-59
2021/12/15 00:37:28;;;;;;;;;;;9.80;62.80;;;;;;5055168;28;20327;-58
2021/12/15 00:39:54;;;;;;;;;;;9.90;62.80;;;;;;5055147;28;20284;-59
2021/12/15 00:42:19;;;;;;;;;;;9.90;62.70;;;;;;5053600;28;19909;-58
2021/12/15 00:44:45;;;;;;;;;;;9.90;62.70;;;;;;5055008;28;19952;-59
2021/12/15 00:47:11;;;;;;;;;;;9.80;63.00;;;;;;5055039;28;19963;-60
2021/12/15 00:49:37;;;;;;;;;;;9.80;63.10;;;;;;5054586;28;19917;-58
2021/12/15 00:52:03;;;;;;;;;;;9.70;63.30;;;;;;5054790;28;19915;-58
2021/12/15 00:54:28;;;;;;;;;;;9.70;63.40;;;;;;5054811;28;19913;-62
2021/12/15 00:56:55;;;;;;;;;;;9.80;63.20;;;;;;5054897;28;19912;-58
2021/12/15 00:59:20;;;;;;;;;;;9.70;63.40;;;;;;5054780;28;19909;-62
2021/12/15 01:01:46;;;;;;;;;;;9.70;63.60;;;;;;5054667;28;19969;-59
2021/12/15 01:04:13;;;;;;;;;;;9.70;63.50;;;;;;5054677;28;19924;-60
2021/12/15 01:06:40;;;;;;;;;;;9.80;63.40;;;;;;5054671;28;19909;-64
2021/12/15 01:09:07;;;;;;;;;;;9.70;63.80;;;;;;5054198;28;19916;-61
2021/12/15 01:12:09;;;;;;;;;;;9.50;64.20;;;;;;5054438;28;19916;-59
2021/12/15 01:20:10;;;;;;;;;;;9.70;63.50;;;;;;5054521;28;19920;-61
2021/12/15 01:22:37;;;;;;;;;;;9.70;63.60;;;;;;5054266;28;19913;-63
2021/12/15 01:25:20;;;;;;;;;;;9.70;63.90;;;;;;5054311;28;19916;-60
2021/12/15 01:27:46;;;;;;;;;;;9.70;63.70;;;;;;5054032;28;19909;-60
2021/12/15 01:30:13;;;;;;;;;;;9.70;63.70;;;;;;5054071;28;19932;-58
2021/12/15 01:32:38;;;;;;;;;;;9.60;64.00;;;;;;5054244;28;20356;-59
2021/12/15 01:35:04;;;;;;;;;;;9.60;63.90;;;;;;5054320;28;19971;-59
2021/12/15 01:37:30;;;;;;;;;;;9.70;63.80;;;;;;5054005;28;19909;-62
2021/12/15 01:39:56;;;;;;;;;;;9.70;63.80;;;;;;5054000;28;19932;-62
2021/12/15 01:42:25;;;;;;;;;;;9.70;63.90;;;;;;5053743;28;20365;-59
2021/12/15 01:47:34;;;;;;;;;;;9.70;63.50;;;;;;5054219;28;19916;-59
2021/12/15 01:50:00;;;;;;;;;;;9.70;63.60;;;;;;5053665;28;20276;-60
2021/12/15 01:52:30;;;;;;;;;;;9.80;63.50;;;;;;5053824;28;20373;-58
2021/12/15 01:54:59;;;;;;;;;;;9.90;63.40;;;;;;5053431;28;20399;-59
2021/12/15 01:57:26;;;;;;;;;;;9.90;63.30;;;;;;5053859;28;20288;-61
2021/12/15 01:59:52;;;;;;;;;;;9.80;63.40;;;;;;5052985;28;19916;-60
2021/12/15 02:02:18;;;;;;;;;;;9.60;63.90;;;;;;5053386;28;19937;-64
2021/12/15 02:04:44;;;;;;;;;;;9.70;64.00;;;;;;5053532;28;19916;-59
2021/12/15 02:07:15;;;;;;;;;;;9.70;63.70;;;;;;5053487;28;19909;-62
2021/12/15 02:12:25;;;;;;;;;;;9.70;63.80;;;;;;5053411;28;19913;-59
2021/12/15 02:14:51;;;;;;;;;;;9.80;63.40;;;;;;5053473;28;19920;-58
2021/12/15 02:17:17;;;;;;;;;;;9.70;64.30;;;;;;5053418;28;19916;-58
2021/12/15 02:19:43;;;;;;;;;;;9.70;63.60;;;;;;5053196;28;19909;-66
2021/12/15 02:22:09;;;;;;;;;;;9.70;63.70;;;;;;5053270;28;19913;-60
2021/12/15 02:24:36;;;;;;;;;;;9.60;63.80;;;;;;5053239;28;20414;-63
2021/12/15 02:27:02;;;;;;;;;;;9.60;64.00;;;;;;5053537;28;19916;-60
2021/12/15 02:29:32;;;;;;;;;;;9.70;64.10;;;;;;5051504;28;20467;-61
2021/12/15 02:32:10;;;;;;;;;;;9.70;64.30;;;;;;5053318;28;19913;-59
2021/12/15 02:37:20;;;;;;;;;;;9.70;64.10;;;;;;5053327;28;19955;-58
2021/12/15 02:39:54;;;;;;;;;;;9.70;63.90;;;;;;5053072;28;19909;-68
2021/12/15 02:42:20;;;;;;;;;;;9.70;64.30;;;;;;5053220;28;19916;-58
2021/12/15 02:44:46;;;;;;;;;;;9.50;64.50;;;;;;5053107;28;20284;-59
2021/12/15 02:47:18;;;;;;;;;;;9.60;64.50;;;;;;5053058;28;19913;-62
2021/12/15 02:49:44;;;;;;;;;;;9.70;64.70;;;;;;5053106;28;20287;-60
2021/12/15 02:52:10;;;;;;;;;;;9.60;64.80;;;;;;5053159;28;19913;-61
2021/12/15 02:54:36;;;;;;;;;;;9.50;65.10;;;;;;5053170;28;19995;-61
2021/12/15 02:57:12;;;;;;;;;;;9.50;64.80;;;;;;5052844;28;19931;-61
2021/12/15 03:05:10;;;;;;;;;;;9.70;64.50;;;;;;5052720;28;19983;-60
2021/12/15 03:15:35;;;;;;;;;;;9.80;63.90;;;;;;5056689;28;19915;-64
2021/12/15 03:18:03;;;;;;;;;;;9.80;63.80;;;;;;5056793;28;20421;-60
2021/12/15 03:20:30;;;;;;;;;;;9.80;64.20;;;;;;5056452;28;19920;-59
2021/12/15 03:22:56;;;;;;;;;;;9.70;64.30;;;;;;5056476;28;19908;-63
2021/12/15 03:25:24;;;;;;;;;;;9.70;64.60;;;;;;5056359;28;20004;-61
2021/12/15 03:33:35;;;;;;;;;;;9.90;63.60;;;;;;5056275;28;19920;-59
2021/12/15 03:36:09;;;;;;;;;;;9.90;63.80;;;;;;5056383;28;19929;-61
2021/12/15 03:38:35;;;;;;;;;;;9.90;64.00;;;;;;5056081;28;19938;-62
2021/12/15 03:41:02;;;;;;;;;;;9.90;63.90;;;;;;5056094;28;19915;-59
2021/12/15 03:43:28;;;;;;;;;;;9.90;63.70;;;;;;5056370;28;19913;-59
2021/12/15 03:45:59;;;;;;;;;;;9.90;63.70;;;;;;5056093;28;19908;-58
2021/12/15 03:48:28;;;;;;;;;;;9.90;63.90;;;;;;5054869;28;19908;-65
2021/12/15 03:50:56;;;;;;;;;;;10.00;63.70;;;;;;5055976;28;20288;-60
2021/12/15 03:53:22;;;;;;;;;;;9.90;63.90;;;;;;5056066;28;19963;-60
2021/12/15 03:55:47;;;;;;;;;;;9.90;63.60;;;;;;5055836;28;19951;-59
2021/12/15 03:58:14;;;;;;;;;;;9.90;63.70;;;;;;5056051;28;19976;-60
2021/12/15 04:00:42;;;;;;;;;;;9.80;64.20;;;;;;5055834;28;19909;-62
2021/12/15 04:03:25;;;;;;;;;;;9.80;64.00;;;;;;5055659;28;19957;-60
2021/12/15 04:05:52;;;;;;;;;;;9.80;64.00;;;;;;5055841;28;19921;-62
2021/12/15 04:08:18;;;;;;;;;;;9.80;64.00;;;;;;5055409;28;19913;-59
2021/12/15 04:10:44;;;;;;;;;;;9.80;64.30;;;;;;5055626;28;19958;-60
2021/12/15 04:13:12;;;;;;;;;;;9.60;64.70;;;;;;5055727;28;19909;-58
2021/12/15 04:15:44;;;;;;;;;;;9.70;64.60;;;;;;5055716;28;20395;-56
2021/12/15 04:18:10;;;;;;;;;;;9.70;64.60;;;;;;5055343;28;20371;-58
2021/12/15 04:20:36;;;;;;;;;;;9.60;64.80;;;;;;5055386;28;19908;-58
2021/12/15 04:23:03;;;;;;;;;;;9.60;65.10;;;;;;5055126;28;20357;-59
2021/12/15 04:25:30;;;;;;;;;;;9.70;65.10;;;;;;5055447;28;20376;-59
2021/12/15 04:28:16;;;;;;;;;;;9.70;65.00;;;;;;5055190;28;19920;-60
2021/12/15 04:30:45;;;;;;;;;;;9.60;65.30;;;;;;5054986;28;19936;-59
2021/12/15 04:33:13;;;;;;;;;;;9.60;65.20;;;;;;5055204;28;19909;-62
2021/12/15 04:35:40;;;;;;;;;;;9.40;65.50;;;;;;5054891;28;19913;-57
2021/12/15 04:38:05;;;;;;;;;;;9.00;66.80;;;;;;5055422;28;20050;-60
2021/12/15 04:40:31;;;;;;;;;;;9.00;67.80;;;;;;5055135;28;19954;-58
2021/12/15 04:42:58;;;;;;;;;;;9.00;67.80;;;;;;5054910;28;19908;-59
2021/12/15 04:45:24;;;;;;;;;;;9.00;68.00;;;;;;5054936;28;19913;-59
2021/12/15 04:47:51;;;;;;;;;;;9.10;67.60;;;;;;5054976;28;19909;-61
2021/12/15 04:50:21;;;;;;;;;;;9.10;67.80;;;;;;5054880;28;20362;-57
2021/12/15 04:52:47;;;;;;;;;;;9.10;67.60;;;;;;5054847;28;19909;-58
2021/12/15 04:55:13;;;;;;;;;;;8.90;68.10;;;;;;5054825;28;19916;-59
2021/12/15 04:57:39;;;;;;;;;;;9.00;68.00;;;;;;5054866;28;19913;-58
2021/12/15 05:00:07;;;;;;;;;;;9.00;68.00;;;;;;5054615;28;20327;-59
2021/12/15 05:02:33;;;;;;;;;;;9.00;68.10;;;;;;5054598;28;20407;-57
2021/12/15 05:04:58;;;;;;;;;;;9.10;67.60;;;;;;5054514;28;19913;-60
2021/12/15 05:07:24;;;;;;;;;;;9.30;66.80;;;;;;5054795;28;19908;-57
2021/12/15 05:09:51;;;;;;;;;;;9.40;66.50;;;;;;5054475;28;19917;-57
2021/12/15 05:12:19;;;;;;;;;;;9.40;66.40;;;;;;5054213;28;20368;-64
2021/12/15 05:14:45;;;;;;;;;;;9.40;66.50;;;;;;5054455;28;20428;-59
2021/12/15 05:17:10;;;;;;;;;;;9.30;66.60;;;;;;5054360;28;19970;-56
2021/12/15 05:19:36;;;;;;;;;;;9.30;66.90;;;;;;5054428;28;19909;-65
2021/12/15 05:22:04;;;;;;;;;;;9.20;67.20;;;;;;5054361;28;20253;-61
2021/12/15 05:24:30;;;;;;;;;;;9.20;67.10;;;;;;5054488;28;19936;-57
2021/12/15 05:27:08;;;;;;;;;;;9.20;67.10;;;;;;5054322;28;19955;-57
2021/12/15 05:29:34;;;;;;;;;;;9.30;67.20;;;;;;5053668;28;20024;-59
2021/12/15 05:31:59;;;;;;;;;;;9.20;67.20;;;;;;5054269;28;20372;-58
2021/12/15 05:34:25;;;;;;;;;;;9.10;67.50;;;;;;5052206;28;19909;-59
2021/12/15 05:36:52;;;;;;;;;;;9.20;67.30;;;;;;5054128;28;19945;-62
2021/12/15 05:39:18;;;;;;;;;;;9.30;67.00;;;;;;5053947;28;19909;-59
2021/12/15 05:41:44;;;;;;;;;;;9.40;66.70;;;;;;5053830;28;20326;-59
2021/12/15 05:44:09;;;;;;;;;;;9.40;66.40;;;;;;5053946;28;19909;-59
2021/12/15 05:46:35;;;;;;;;;;;9.30;66.50;;;;;;5053992;28;20042;-60
2021/12/15 05:49:00;;;;;;;;;;;9.20;67.70;;;;;;5053655;28;19916;-64
2021/12/15 05:51:26;;;;;;;;;;;9.10;68.00;;;;;;5053802;28;19995;-58
2021/12/15 05:53:52;;;;;;;;;;;9.00;68.30;;;;;;5053682;28;19913;-61
2021/12/15 05:56:18;;;;;;;;;;;8.90;68.60;;;;;;5053667;28;20129;-60
2021/12/15 05:58:47;;;;;;;;;;;8.90;68.50;;;;;;5053591;28;19959;-62
2021/12/15 06:01:12;;;;;;;;;;;8.90;68.70;;;;;;5053473;28;19913;-62
2021/12/15 06:03:38;;;;;;;;;;;9.10;67.80;;;;;;5053661;28;19913;-59
2021/12/15 06:06:04;;;;;;;;;;;9.20;68.30;;;;;;5053411;28;19991;-59
2021/12/15 06:08:30;;;;;;;;;;;9.30;67.20;;;;;;5053469;28;20306;-57
2021/12/15 06:10:55;;;;;;;;;;;9.30;67.10;;;;;;5053494;28;19909;-59
2021/12/15 06:13:23;;;;;;;;;;;9.30;66.90;;;;;;5053149;28;19923;-63
2021/12/15 06:15:49;;;;;;;;;;;9.20;67.00;;;;;;5053459;28;20004;-60
2021/12/15 06:18:17;;;;;;;;;;;9.30;66.80;;;;;;5052001;28;19909;-58
2021/12/15 06:20:43;;;;;;;;;;;9.30;66.40;;;;;;5053306;28;19908;-58
2021/12/15 06:23:12;;;;;;;;;;;9.40;66.60;;;;;;5053312;28;20376;-59
2021/12/15 06:25:38;;;;;;;;;;;9.30;66.60;;;;;;5053019;28;19912;-62
2021/12/15 06:28:04;;;;;;;;;;;9.30;66.70;;;;;;5053144;28;19921;-60
2021/12/15 06:30:30;;;;;;;;;;;9.40;66.70;;;;;;5053041;28;19985;-60
2021/12/15 06:32:56;;;;;;;;;;;9.40;66.70;;;;;;5053132;28;20429;-58
2021/12/15 06:35:21;;;;;;;;;;;9.40;66.30;;;;;;5052756;28;19916;-58
2021/12/15 06:37:47;;;;;;;;;;;9.70;72.80;;;;;;5053071;28;19913;-59
2021/12/15 06:40:14;;;;;;;;;;;10.20;69.60;;;;;;5053105;28;19931;-59
2021/12/15 06:42:41;;;;;;;;;;;10.30;66.70;;;;;;5052605;28;19955;-63
2021/12/15 06:45:07;;;;;;;;;;;10.20;64.90;;;;;;5053956;28;19955;-64
2021/12/15 06:58:15;;;;;;;;;;;9.50;66.40;;;;;;5057150;28;19919;-58
2021/12/15 07:00:48;;;;;;;;;;;9.40;66.60;;;;;;5056849;28;19909;-59
2021/12/15 07:03:15;;;;;;;;;;;9.40;66.70;;;;;;5061140;28;19912;-62
2021/12/15 07:05:41;;;;;;;;;;;9.70;66.50;;;;;;5075212;28;19909;-57
2021/12/15 07:08:07;;;;;;;;;;;9.60;65.80;;;;;;5076067;28;19919;-61
2021/12/15 07:10:37;;;;;;;;;;;9.40;66.30;;;;;;5075841;28;19916;-59
2021/12/15 07:13:03;;;;;;;;;;;9.30;67.40;;;;;;5076136;28;19940;-60
2021/12/15 07:15:30;;;;;;;;;;;9.20;67.80;;;;;;5076563;28;19908;-64
2021/12/15 07:18:02;;;;;;;;;;;9.20;68.30;;;;;;5076284;28;19935;-58
2021/12/15 07:22:54;;;;;;;;;;;9.00;69.00;;;;;;5076374;28;20355;-56
2021/12/15 07:25:21;;;;;;;;;;;9.00;69.30;;;;;;5075561;28;19956;-56
2021/12/15 07:27:47;;;;;;;;;;;9.00;69.70;;;;;;5075534;28;19916;-58
2021/12/15 07:30:13;;;;;;;;;;;8.90;70.10;;;;;;5075728;28;19916;-58
2021/12/15 07:32:38;;;;;;;;;;;8.90;70.90;;;;;;5075465;28;19912;-60
2021/12/15 07:35:05;;;;;;;;;;;8.90;69.80;;;;;;5081485;28;19931;-63
2021/12/15 07:37:32;;;;;;;;;;;9.00;70.00;;;;;;5075571;28;19916;-61
2021/12/15 07:39:59;;;;;;;;;;;9.10;70.00;;;;;;5074859;28;19917;-61
2021/12/15 07:42:34;;;;;;;;;;;9.20;69.60;;;;;;5088798;28;19909;-59
2021/12/15 07:44:59;;;;;;;;;;;9.30;69.10;;;;;;5074510;28;19962;-61
2021/12/15 07:47:25;;;;;;;;;;;9.40;68.10;;;;;;5075389;28;19912;-59
2021/12/15 07:49:51;;;;;;;;;;;9.50;67.70;;;;;;5074984;28;19916;-63
2021/12/15 07:52:16;;;;;;;;;;;9.60;67.60;;;;;;5075532;28;19932;-61
2021/12/15 07:54:42;;;;;;;;;;;9.60;67.20;;;;;;5073796;28;19965;-62
2021/12/15 07:57:10;;;;;;;;;;;9.80;66.70;;;;;;5074392;28;20232;-60
2021/12/15 07:59:36;;;;;;;;;;;9.90;66.20;;;;;;5074505;28;20322;-59
2021/12/15 08:02:02;;;;;;;;;;;10.00;65.70;;;;;;5074577;28;19914;-61
2021/12/15 08:04:28;;;;;;;;;;;10.20;65.50;;;;;;5076096;28;19917;-61
2021/12/15 08:06:53;;;;;;;;;;;10.20;65.30;;;;;;5090235;28;19916;-59
2021/12/15 08:09:20;;;;;;;;;;;10.20;65.30;;;;;;5067346;28;20389;-62
2021/12/15 08:11:46;;;;;;;;;;;10.30;64.70;;;;;;5072696;28;19908;-59
2021/12/15 08:14:11;;;;;;;;;;;10.40;64.20;;;;;;5072808;28;19915;-59
2021/12/15 08:16:37;;;;;;;;;;;10.50;63.60;;;;;;5072896;28;19947;-62
2021/12/15 08:19:03;;;;;;;;;;;10.60;63.40;;;;;;5074671;28;19909;-60
2021/12/15 08:21:29;;;;;;;;;;;10.60;63.00;;;;;;5074058;28;19916;-61
2021/12/15 08:23:55;;;;;;;;;;;10.70;63.00;;;;;;5074234;28;19924;-61
2021/12/15 08:26:20;;;;;;;;;;;10.80;62.80;;;;;;5074188;28;19908;-61
2021/12/15 08:28:46;;;;;;;;;;;10.80;62.60;;;;;;5073717;28;20316;-60
2021/12/15 08:31:12;;;;;;;;;;;10.90;61.80;;;;;;5073938;28;20390;-61
2021/12/15 08:33:37;;;;;;;;;;;11.00;61.40;;;;;;5073705;28;19909;-61
2021/12/15 08:36:05;;;;;;;;;;;11.00;61.40;;;;;;5088690;28;19974;-59
2021/12/15 08:38:32;;;;;;;;;;;11.10;61.30;;;;;;5078120;28;19916;-60
2021/12/15 08:40:58;;;;;;;;;;;11.20;61.30;;;;;;5074233;28;19944;-60
2021/12/15 08:43:24;;;;;;;;;;;11.20;60.90;;;;;;5074703;28;19908;-58
2021/12/15 08:45:52;;;;;;;;;;;11.10;60.90;;;;;;5074958;28;20306;-58
2021/12/15 08:48:18;;;;;;;;;;;11.20;61.00;;;;;;5074996;28;19962;-60
2021/12/15 08:50:44;;;;;;;;;;;11.20;60.90;;;;;;5074788;28;19948;-60
2021/12/15 08:53:11;;;;;;;;;;;11.20;60.50;;;;;;5074541;28;19908;-57
2021/12/15 08:55:38;;;;;;;;;;;11.20;60.70;;;;;;5073321;28;20425;-61
2021/12/15 08:58:05;;;;;;;;;;;11.10;61.00;;;;;;5074727;28;19908;-59
2021/12/15 09:00:31;;;;;;;;;;;11.10;60.90;;;;;;5074767;28;19908;-60
2021/12/15 09:02:56;;;;;;;;;;;11.10;60.70;;;;;;5074214;28;20054;-59
2021/12/15 09:05:23;;;;;;;;;;;11.10;60.80;;;;;;5074800;28;19996;-59
2021/12/15 09:07:53;;;;;;;;;;;11.20;60.80;;;;;;5074353;28;19955;-60
2021/12/15 09:10:20;;;;;;;;;;;11.20;60.40;;;;;;5073396;28;19917;-59
2021/12/15 09:12:45;;;;;;;;;;;11.00;60.90;;;;;;5074566;28;20391;-57
2021/12/15 09:15:11;;;;;;;;;;;11.00;61.40;;;;;;5073354;28;19939;-58
2021/12/15 09:17:37;;;;;;;;;;;11.10;61.40;;;;;;5072773;28;19937;-58
2021/12/15 09:20:05;;;;;;;;;;;11.20;61.30;;;;;;5073722;28;19909;-59
2021/12/15 09:22:31;;;;;;;;;;;11.30;60.80;;;;;;5070686;28;19915;-59
2021/12/15 09:24:56;;;;;;;;;;;11.30;60.50;;;;;;5079307;28;19912;-56
2021/12/15 09:27:22;;;;;;;;;;;11.40;60.70;;;;;;5074338;28;19908;-59
2021/12/15 09:29:47;;;;;;;;;;;11.30;60.70;;;;;;5074203;28;19928;-60
2021/12/15 09:32:14;;;;;;;;;;;11.10;61.30;;;;;;5074145;28;19909;-59
2021/12/15 09:34:39;;;;;;;;;;;11.20;61.40;;;;;;5073833;28;19948;-59
2021/12/15 09:37:05;;;;;;;;;;;11.20;61.60;;;;;;5074050;28;19970;-59
2021/12/15 09:39:31;;;;;;;;;;;11.20;61.40;;;;;;5073376;28;19975;-60
2021/12/15 09:41:59;;;;;;;;;;;11.30;61.40;;;;;;5073506;28;20268;-57
2021/12/15 09:44:26;;;;;;;;;;;11.40;61.30;;;;;;5073722;28;19944;-60
2021/12/15 09:47:11;;;;;;;;;;;11.40;61.20;;;;;;5073469;28;19951;-60
2021/12/15 10:03:43;;;;;;;;;;;11.40;60.80;;;;;;5074534;28;19915;-60
2021/12/15 10:19:36;;;;;;;;;;;11.70;60.30;;;;;;5073301;28;20375;-65
2021/12/15 10:22:11;;;;;;;;;;;11.60;59.80;;;;;;5073633;28;20359;-59
2021/12/15 10:24:46;;;;;;;;;;;11.50;59.80;;;;;;5073341;28;20310;-62
2021/12/15 10:27:13;;;;;;;;;;;11.60;60.30;;;;;;5072593;28;20271;-61
2021/12/15 10:30:03;;;;;;;;;;;11.60;59.80;;;;;;5072794;28;19974;-60
2021/12/15 10:32:32;;;;;;;;;;;11.50;60.00;;;;;;5072454;28;20081;-60
2021/12/15 10:35:05;;;;;;;;;;;11.40;60.40;;;;;;5073194;28;19913;-60
2021/12/15 10:37:30;;;;;;;;;;;11.60;60.20;;;;;;5073206;28;19916;-62
2021/12/15 10:40:10;;;;;;;;;;;11.50;60.50;;;;;;5071808;28;19908;-59
2021/12/15 10:42:35;;;;;;;;;;;11.50;60.00;;;;;;5073259;28;20000;-59
2021/12/15 10:45:05;;;;;;;;;;;11.60;60.00;;;;;;5073115;28;20356;-60
2021/12/15 10:47:38;;;;;;;;;;;11.70;59.50;;;;;;5073008;28;19912;-61
2021/12/15 10:50:04;;;;;;;;;;;11.80;59.30;;;;;;5072979;28;19916;-63
2021/12/15 10:52:32;;;;;;;;;;;11.60;59.30;;;;;;5073088;28;20409;-62
2021/12/15 10:55:03;;;;;;;;;;;11.50;59.80;;;;;;5073342;28;19909;-60
2021/12/15 10:57:34;;;;;;;;;;;11.50;59.80;;;;;;5073514;28;19916;-62
2021/12/15 11:00:00;;;;;;;;;;;11.50;59.90;;;;;;5073132;28;19912;-61
2021/12/15 11:02:28;;;;;;;;;;;11.60;59.80;;;;;;5071543;28;19962;-64
2021/12/15 11:04:57;;;;;;;;;;;11.60;59.70;;;;;;5072758;28;19908;-59
2021/12/15 11:07:25;;;;;;;;;;;11.60;60.00;;;;;;5072973;28;20012;-59
2021/12/15 11:09:53;;;;;;;;;;;11.60;60.20;;;;;;5072888;28;19964;-59
2021/12/15 11:12:18;;;;;;;;;;;11.80;59.40;;;;;;5072519;28;19913;-60
2021/12/15 11:14:46;;;;;;;;;;;11.80;59.70;;;;;;5072776;28;19962;-61
2021/12/15 11:17:12;;;;;;;;;;;11.90;59.40;;;;;;5072764;28;19909;-61
2021/12/15 11:19:44;;;;;;;;;;;12.20;58.70;;;;;;5071476;28;19913;-59
2021/12/15 11:22:28;;;;;;;;;;;12.00;58.70;;;;;;5072596;28;20433;-58
2021/12/15 11:24:53;;;;;;;;;;;12.00;58.60;;;;;;5072840;28;20076;-61
2021/12/15 11:27:19;;;;;;;;;;;11.90;59.10;;;;;;5072817;28;19922;-58
2021/12/15 11:29:45;;;;;;;;;;;11.80;59.40;;;;;;5072300;28;19920;-60
2021/12/15 11:32:29;;;;;;;;;;;11.70;59.80;;;;;;5073351;28;19912;-61
2021/12/15 11:35:04;;;;;;;;;;;11.60;60.40;;;;;;5076181;28;19912;-60
2021/12/15 11:37:42;;;;;;;;;;;11.60;59.80;;;;;;5076390;28;19915;-60
2021/12/15 11:40:08;;;;;;;;;;;11.70;60.00;;;;;;5076090;28;19915;-60
2021/12/15 11:42:37;;;;;;;;;;;11.80;59.40;;;;;;5076012;28;19909;-59
2021/12/15 11:45:06;;;;;;;;;;;11.90;58.80;;;;;;5076439;28;20366;-59
2021/12/15 11:47:33;;;;;;;;;;;11.80;58.90;;;;;;5076147;28;19915;-58
2021/12/15 11:50:06;;;;;;;;;;;11.80;59.00;;;;;;5075901;28;19920;-58
2021/12/15 11:52:42;;;;;;;;;;;11.90;58.80;;;;;;5076009;28;19962;-59
2021/12/15 11:55:19;;;;;;;;;;;11.80;59.20;;;;;;5075960;28;20327;-58
2021/12/15 11:57:45;;;;;;;;;;;11.90;58.80;;;;;;5076054;28;19915;-59
2021/12/15 12:00:13;;;;;;;;;;;11.90;58.90;;;;;;5075901;28;19908;-60
2021/12/15 12:02:40;;;;;;;;;;;11.90;58.90;;;;;;5075769;28;19919;-60
2021/12/15 12:05:08;;;;;;;;;;;11.90;59.00;;;;;;5075594;28;19908;-59
2021/12/15 12:07:37;;;;;;;;;;;11.90;59.10;;;;;;5074599;28;19916;-60
2021/12/15 12:10:09;;;;;;;;;;;11.90;59.00;;;;;;5074977;28;19924;-59
2021/12/15 12:12:40;;;;;;;;;;;11.90;58.80;;;;;;5074760;28;19913;-58
2021/12/15 12:15:14;;;;;;;;;;;12.00;58.70;;;;;;5075063;28;19908;-58
2021/12/15 12:17:42;;;;;;;;;;;12.00;58.20;;;;;;5075048;28;19908;-59
2021/12/15 12:20:07;;;;;;;;;;;12.00;58.60;;;;;;5067197;28;19909;-55
2021/12/15 12:22:35;;;;;;;;;;;12.10;58.30;;;;;;5054696;28;20284;-56
2021/12/15 12:25:02;;;;;;;;;;;11.90;58.50;;;;;;5068338;28;19915;-62
2021/12/15 12:27:29;;;;;;;;;;;11.90;58.60;;;;;;5074802;28;20002;-61
2021/12/15 12:29:56;;;;;;;;;;;11.70;59.00;;;;;;5074221;28;20438;-61
2021/12/15 12:32:22;;;;;;;;;;;11.80;59.00;;;;;;5074555;28;19908;-59
2021/12/15 12:34:48;;;;;;;;;;;11.60;59.20;;;;;;5074134;28;19912;-65
2021/12/15 12:37:15;;;;;;;;;;;11.50;59.40;;;;;;5074571;28;19908;-61
2021/12/15 12:39:41;;;;;;;;;;;11.60;59.50;;;;;;5074435;28;20332;-61
2021/12/15 12:42:07;;;;;;;;;;;11.60;59.00;;;;;;5074336;28;19965;-64
2021/12/15 12:44:35;;;;;;;;;;;11.50;59.00;;;;;;5074243;28;19909;-65
2021/12/15 12:47:06;;;;;;;;;;;11.40;59.50;;;;;;5074043;28;19995;-63
2021/12/15 12:59:24;;;;;;;;;;;11.30;59.70;;;;;;5074075;28;20053;-65
2021/12/15 13:01:01;;;;;;;;;;;11.30;59.60;;;;;;5073644;28;19912;-66
2021/12/15 13:03:27;;;;;;;;;;;11.30;59.60;;;;;;5073976;28;19909;-67
2021/12/15 13:05:58;;;;;;;;;;;11.40;59.30;;;;;;5073769;28;19916;-65
2021/12/15 13:08:30;;;;;;;;;;;11.40;59.40;;;;;;5073942;28;20395;-64
2021/12/15 13:10:55;;;;;;;;;;;11.40;59.30;;;;;;5073532;28;19924;-64
2021/12/15 13:13:23;;;;;;;;;;;11.30;59.60;;;;;;5073707;28;19914;-62
2021/12/15 13:16:01;;;;;;;;;;;11.30;59.70;;;;;;5073682;28;19912;-66
2021/12/15 13:18:27;;;;;;;;;;;11.30;59.70;;;;;;5072320;28;19915;-67
2021/12/15 13:20:54;;;;;;;;;;;11.20;60.20;;;;;;5073509;28;20447;-66
2021/12/15 13:23:51;;;;;;;;;;;11.30;60.00;;;;;;5073559;28;19909;-60
2021/12/15 13:29:24;;;;;;;;;;;11.10;60.30;;;;;;5086299;28;20299;-65
2021/12/15 13:31:58;;;;;;;;;;;11.10;60.30;;;;;;5091966;28;19912;-61
2021/12/15 13:34:53;;;;;;;;;;;11.00;60.40;;;;;;5087112;28;19941;-65
2021/12/15 13:37:37;;;;;;;;;;;11.00;60.80;;;;;;5083878;28;19908;-58
2021/12/15 13:40:03;;;;;;;;;;;10.90;61.10;;;;;;5093640;28;20356;-59
2021/12/15 13:42:41;;;;;;;;;;;10.90;61.00;;;;;;5093512;28;19912;-61
2021/12/15 13:45:24;;;;;;;;;;;10.80;61.20;;;;;;5093602;28;20352;-62
2021/12/15 13:47:49;;;;;;;;;;;10.80;61.30;;;;;;5093397;28;19908;-59
2021/12/15 13:50:20;;;;;;;;;;;10.90;61.20;;;;;;5093781;28;20019;-62
2021/12/15 13:52:52;;;;;;;;;;;10.90;61.30;;;;;;5093076;28;19908;-62
2021/12/15 13:55:21;;;;;;;;;;;10.80;61.60;;;;;;5092385;28;19915;-61
2021/12/15 13:57:46;;;;;;;;;;;10.80;61.60;;;;;;5093012;28;20002;-61
2021/12/15 14:00:17;;;;;;;;;;;10.80;61.60;;;;;;5091591;28;20049;-61
2021/12/15 14:03:03;;;;;;;;;;;10.80;61.60;;;;;;5091669;28;19930;-60
2021/12/15 14:05:34;;;;;;;;;;;10.70;61.60;;;;;;5091276;28;19918;-61
2021/12/15 14:08:01;;;;;;;;;;;10.80;61.50;;;;;;5090524;28;19915;-57
2021/12/15 14:10:27;;;;;;;;;;;10.80;61.50;;;;;;5071401;28;20379;-60
2021/12/15 14:12:55;;;;;;;;;;;10.80;61.90;;;;;;5072203;28;19912;-62
2021/12/15 14:15:24;;;;;;;;;;;10.60;61.80;;;;;;5072262;28;19908;-60
2021/12/15 14:17:55;;;;;;;;;;;10.60;62.30;;;;;;5072340;28;19987;-59
2021/12/15 14:20:21;;;;;;;;;;;10.50;62.50;;;;;;5074487;28;19962;-60
2021/12/15 14:22:54;;;;;;;;;;;10.30;63.10;;;;;;5092479;28;19908;-57
2021/12/15 14:25:19;;;;;;;;;;;10.30;63.50;;;;;;5073053;28;19917;-59
2021/12/15 14:27:45;;;;;;;;;;;10.40;63.40;;;;;;5077606;28;19912;-59
2021/12/15 14:30:12;;;;;;;;;;;10.60;62.70;;;;;;5078003;28;19959;-57
2021/12/15 14:32:37;;;;;;;;;;;10.50;62.60;;;;;;5073483;28;19952;-59
2021/12/15 14:35:03;;;;;;;;;;;10.50;63.00;;;;;;5092413;28;19970;-61
2021/12/15 14:37:29;;;;;;;;;;;10.60;62.80;;;;;;5093334;28;19918;-62
2021/12/15 14:39:55;;;;;;;;;;;10.60;62.40;;;;;;5075712;28;19954;-62
2021/12/15 14:42:28;;;;;;;;;;;10.40;62.90;;;;;;5079399;28;20372;-61
2021/12/15 14:44:55;;;;;;;;;;;10.30;63.10;;;;;;5072367;28;19943;-57
2021/12/15 14:47:25;;;;;;;;;;;10.20;63.30;;;;;;5073504;28;19913;-58
2021/12/15 14:50:04;;;;;;;;;;;10.20;63.70;;;;;;5073519;28;19924;-58
2021/12/15 14:52:34;;;;;;;;;;;10.00;64.80;;;;;;5072058;28;19916;-58
2021/12/15 14:55:02;;;;;;;;;;;10.00;64.90;;;;;;5072142;28;20074;-61
2021/12/15 14:57:29;;;;;;;;;;;10.00;64.70;;;;;;5072204;28;19908;-64
2021/12/15 14:59:55;;;;;;;;;;;10.20;64.50;;;;;;5071434;28;20425;-61
2021/12/15 15:02:23;;;;;;;;;;;10.00;64.20;;;;;;5071997;28;19952;-62
2021/12/15 15:04:53;;;;;;;;;;;10.00;64.80;;;;;;5071715;28;19966;-61
2021/12/15 15:07:22;;;;;;;;;;;10.00;64.70;;;;;;5072683;28;19984;-60
2021/12/15 15:09:51;;;;;;;;;;;10.10;64.40;;;;;;5074500;28;19917;-58
2021/12/15 15:12:19;;;;;;;;;;;9.90;64.90;;;;;;5085433;28;19915;-59
2021/12/15 15:14:51;;;;;;;;;;;10.10;65.60;;;;;;5093427;28;20046;-60
2021/12/15 15:17:24;;;;;;;;;;;10.00;65.20;;;;;;5075649;28;19919;-61
2021/12/15 15:19:54;;;;;;;;;;;10.00;66.40;;;;;;5074533;28;19913;-62
2021/12/15 15:22:22;;;;;;;;;;;10.10;65.90;;;;;;5075814;28;19912;-64
2021/12/15 15:24:48;;;;;;;;;;;10.10;65.40;;;;;;5075624;28;20004;-61
2021/12/15 15:27:15;;;;;;;;;;;10.00;65.20;;;;;;5075628;28;20375;-65
2021/12/15 15:29:43;;;;;;;;;;;9.90;65.50;;;;;;5075246;28;19921;-59
2021/12/15 15:32:13;;;;;;;;;;;9.80;65.70;;;;;;5075515;28;20263;-60
2021/12/15 15:34:42;;;;;;;;;;;9.90;66.60;;;;;;5075163;28;20360;-59
2021/12/15 15:37:29;;;;;;;;;;;10.00;66.20;;;;;;5074861;28;19909;-58
2021/12/15 15:40:00;;;;;;;;;;;10.00;65.30;;;;;;5075024;28;19919;-59
2021/12/15 15:42:27;;;;;;;;;;;10.00;65.20;;;;;;5088949;28;20338;-61
2021/12/15 15:44:52;;;;;;;;;;;9.90;65.70;;;;;;5092980;28;19930;-63
2021/12/15 15:47:20;;;;;;;;;;;9.90;65.30;;;;;;5075335;28;20356;-63
2021/12/15 15:49:56;;;;;;;;;;;9.90;65.10;;;;;;5075381;28;19959;-62
2021/12/15 15:52:22;;;;;;;;;;;10.00;65.60;;;;;;5075098;28;20070;-62
2021/12/15 15:54:48;;;;;;;;;;;9.90;65.50;;;;;;5086727;28;20377;-62